sensor_id;sensor_type;location;lat;lon;timestamp;temperature;humidity
8269;DHT22;4174;48.304;16.364;2023-07-28T00:02:04;21.90;92.10
8269;DHT22;4174;48.304;16.364;2023-07-28T00:08:13;21.80;92.50
8269;DHT22;4174;48.304;16.364;2023-07-28T00:14:18;21.80;92.40
8269;DHT22;4174;48.304;16.364;2023-07-28T00:27:31;22.00;94.20
8269;DHT22;4174;48.304;16.364;2023-07-28T00:33:39;22.10;94.80
8269;DHT22;4174;48.304;16.364;2023-07-28T00:39:45;22.10;94.90
8269;DHT22;4174;48.304;16.364;2023-07-28T00:45:49;22.00;94.80
8269;DHT22;4174;48.304;16.364;2023-07-28T00:51:54;21.90;95.50
8269;DHT22;4174;48.304;16.364;2023-07-28T00:57:59;21.90;96.30
8269;DHT22;4174;48.304;16.364;2023-07-28T01:04:04;21.80;96.80
8269;DHT22;4174;48.304;16.364;2023-07-28T01:10:14;21.90;98.00
8269;DHT22;4174;48.304;16.364;2023-07-28T01:16:18;21.90;98.00
8269;DHT22;4174;48.304;16.364;2023-07-28T01:22:34;21.80;98.60
8269;DHT22;4174;48.304;16.364;2023-07-28T01:28:39;21.80;99.80
8269;DHT22;4174;48.304;16.364;2023-07-28T01:41:10;21.70;99.90
8269;DHT22;4174;48.304;16.364;2023-07-28T01:47:15;21.90;99.90
8269;DHT22;4174;48.304;16.364;2023-07-28T01:53:21;22.00;99.90
8269;DHT22;4174;48.304;16.364;2023-07-28T01:59:27;21.90;99.90
8269;DHT22;4174;48.304;16.364;2023-07-28T02:05:31;21.90;99.90
8269;DHT22;4174;48.304;16.364;2023-07-28T02:11:36;21.90;99.90
8269;DHT22;4174;48.304;16.364;2023-07-28T02:17:42;21.90;99.90
8269;DHT22;4174;48.304;16.364;2023-07-28T02:30:03;21.80;99.90
8269;DHT22;4174;48.304;16.364;2023-07-28T02:36:09;21.80;99.90
8269;DHT22;4174;48.304;16.364;2023-07-28T02:42:15;21.60;99.90
8269;DHT22;4174;48.304;16.364;2023-07-28T02:48:23;21.50;99.90
8269;DHT22;4174;48.304;16.364;2023-07-28T02:54:28;21.50;99.90
8269;DHT22;4174;48.304;16.364;2023-07-28T03:00:33;21.50;99.90
8269;DHT22;4174;48.304;16.364;2023-07-28T03:06:39;21.50;99.90
8269;DHT22;4174;48.304;16.364;2023-07-28T03:12:44;21.50;99.90
8269;DHT22;4174;48.304;16.364;2023-07-28T03:18:49;21.50;99.90
8269;DHT22;4174;48.304;16.364;2023-07-28T03:24:54;21.40;99.90
8269;DHT22;4174;48.304;16.364;2023-07-28T03:30:59;21.40;99.90
8269;DHT22;4174;48.304;16.364;2023-07-28T03:37:05;21.40;99.90
8269;DHT22;4174;48.304;16.364;2023-07-28T03:43:09;21.30;99.90
8269;DHT22;4174;48.304;16.364;2023-07-28T03:49:13;21.30;99.90
8269;DHT22;4174;48.304;16.364;2023-07-28T03:55:19;21.40;99.90
8269;DHT22;4174;48.304;16.364;2023-07-28T04:01:25;21.40;99.90
8269;DHT22;4174;48.304;16.364;2023-07-28T04:07:30;21.10;99.90
8269;DHT22;4174;48.304;16.364;2023-07-28T04:13:37;20.70;99.90
8269;DHT22;4174;48.304;16.364;2023-07-28T04:19:43;20.70;99.90
8269;DHT22;4174;48.304;16.364;2023-07-28T04:25:50;20.80;99.90
8269;DHT22;4174;48.304;16.364;2023-07-28T04:31:57;20.90;99.90
8269;DHT22;4174;48.304;16.364;2023-07-28T04:38:02;21.10;99.90
8269;DHT22;4174;48.304;16.364;2023-07-28T04:44:10;21.30;99.90
8269;DHT22;4174;48.304;16.364;2023-07-28T04:50:15;21.50;99.90
8269;DHT22;4174;48.304;16.364;2023-07-28T04:56:20;21.50;99.90
8269;DHT22;4174;48.304;16.364;2023-07-28T05:02:40;21.70;99.90
8269;DHT22;4174;48.304;16.364;2023-07-28T05:08:45;21.60;99.90
8269;DHT22;4174;48.304;16.364;2023-07-28T05:14:51;21.80;99.90
8269;DHT22;4174;48.304;16.364;2023-07-28T05:20:56;21.80;99.90
8269;DHT22;4174;48.304;16.364;2023-07-28T05:27:04;22.00;99.90
8269;DHT22;4174;48.304;16.364;2023-07-28T05:33:12;22.00;99.90
8269;DHT22;4174;48.304;16.364;2023-07-28T05:39:19;21.70;99.90
8269;DHT22;4174;48.304;16.364;2023-07-28T05:45:23;21.70;99.90
8269;DHT22;4174;48.304;16.364;2023-07-28T05:51:30;22.20;99.90
8269;DHT22;4174;48.304;16.364;2023-07-28T05:57:34;22.10;99.90
8269;DHT22;4174;48.304;16.364;2023-07-28T06:03:38;22.40;99.90
8269;DHT22;4174;48.304;16.364;2023-07-28T06:09:42;22.80;99.90
8269;DHT22;4174;48.304;16.364;2023-07-28T06:15:47;23.60;98.50
8269;DHT22;4174;48.304;16.364;2023-07-28T06:21:53;23.80;99.40
8269;DHT22;4174;48.304;16.364;2023-07-28T06:28:00;24.30;96.70
8269;DHT22;4174;48.304;16.364;2023-07-28T06:34:07;24.90;92.90
8269;DHT22;4174;48.304;16.364;2023-07-28T06:40:11;24.90;93.10
8269;DHT22;4174;48.304;16.364;2023-07-28T06:46:18;25.80;91.00
8269;DHT22;4174;48.304;16.364;2023-07-28T06:52:24;27.70;86.20
8269;DHT22;4174;48.304;16.364;2023-07-28T06:58:32;30.50;73.30
8269;DHT22;4174;48.304;16.364;2023-07-28T07:04:37;30.40;73.30
8269;DHT22;4174;48.304;16.364;2023-07-28T07:10:49;31.90;61.80
8269;DHT22;4174;48.304;16.364;2023-07-28T07:16:54;33.30;54.90
8269;DHT22;4174;48.304;16.364;2023-07-28T07:23:01;33.50;53.50
8269;DHT22;4174;48.304;16.364;2023-07-28T07:29:07;34.00;53.30
8269;DHT22;4174;48.304;16.364;2023-07-28T07:41:37;33.60;50.60
8269;DHT22;4174;48.304;16.364;2023-07-28T07:47:43;33.60;51.20
8269;DHT22;4174;48.304;16.364;2023-07-28T07:53:48;33.60;51.20
8269;DHT22;4174;48.304;16.364;2023-07-28T07:59:53;33.90;52.90
8269;DHT22;4174;48.304;16.364;2023-07-28T08:06:00;33.80;47.60
8269;DHT22;4174;48.304;16.364;2023-07-28T08:12:08;34.10;51.30
8269;DHT22;4174;48.304;16.364;2023-07-28T08:18:21;34.00;51.30
8269;DHT22;4174;48.304;16.364;2023-07-28T08:24:29;34.60;51.50
8269;DHT22;4174;48.304;16.364;2023-07-28T08:30:35;34.60;51.50
8269;DHT22;4174;48.304;16.364;2023-07-28T08:36:41;35.10;49.30
8269;DHT22;4174;48.304;16.364;2023-07-28T08:42:47;35.10;49.20
8269;DHT22;4174;48.304;16.364;2023-07-28T08:48:52;35.50;49.30
8269;DHT22;4174;48.304;16.364;2023-07-28T08:54:58;35.40;50.60
8269;DHT22;4174;48.304;16.364;2023-07-28T09:01:03;35.70;50.70
8269;DHT22;4174;48.304;16.364;2023-07-28T09:07:08;35.70;50.80
8269;DHT22;4174;48.304;16.364;2023-07-28T09:13:12;35.90;50.50
8269;DHT22;4174;48.304;16.364;2023-07-28T09:19:16;35.60;51.40
8269;DHT22;4174;48.304;16.364;2023-07-28T09:25:21;35.90;50.90
8269;DHT22;4174;48.304;16.364;2023-07-28T09:31:29;36.40;48.00
8269;DHT22;4174;48.304;16.364;2023-07-28T09:37:38;35.70;49.00
8269;DHT22;4174;48.304;16.364;2023-07-28T09:43:42;35.70;49.30
8269;DHT22;4174;48.304;16.364;2023-07-28T09:49:46;35.90;48.00
8269;DHT22;4174;48.304;16.364;2023-07-28T09:55:52;36.40;47.60
8269;DHT22;4174;48.304;16.364;2023-07-28T10:01:58;36.40;47.50
8269;DHT22;4174;48.304;16.364;2023-07-28T10:08:01;36.20;46.90
8269;DHT22;4174;48.304;16.364;2023-07-28T10:14:07;36.30;50.50
8269;DHT22;4174;48.304;16.364;2023-07-28T10:26:36;37.80;46.50
8269;DHT22;4174;48.304;16.364;2023-07-28T10:32:40;37.90;50.00
8269;DHT22;4174;48.304;16.364;2023-07-28T10:39:19;37.80;48.20
8269;DHT22;4174;48.304;16.364;2023-07-28T10:45:18;37.30;45.90
8269;DHT22;4174;48.304;16.364;2023-07-28T10:51:24;36.80;46.60
8269;DHT22;4174;48.304;16.364;2023-07-28T10:57:28;36.80;46.60
8269;DHT22;4174;48.304;16.364;2023-07-28T11:03:34;36.10;46.50
8269;DHT22;4174;48.304;16.364;2023-07-28T11:09:38;36.10;46.30
8269;DHT22;4174;48.304;16.364;2023-07-28T11:15:46;35.90;46.70
8269;DHT22;4174;48.304;16.364;2023-07-28T11:21:51;35.90;49.20
8269;DHT22;4174;48.304;16.364;2023-07-28T11:27:57;36.10;49.00
8269;DHT22;4174;48.304;16.364;2023-07-28T11:34:02;36.10;49.00
8269;DHT22;4174;48.304;16.364;2023-07-28T11:40:07;36.40;47.30
8269;DHT22;4174;48.304;16.364;2023-07-28T11:52:42;36.10;47.70
8269;DHT22;4174;48.304;16.364;2023-07-28T11:58:51;36.00;46.80
8269;DHT22;4174;48.304;16.364;2023-07-28T12:04:55;36.00;46.70
8269;DHT22;4174;48.304;16.364;2023-07-28T12:11:02;35.30;47.70
8269;DHT22;4174;48.304;16.364;2023-07-28T12:17:12;33.80;50.10
8269;DHT22;4174;48.304;16.364;2023-07-28T12:23:20;33.90;48.40
8269;DHT22;4174;48.304;16.364;2023-07-28T12:29:25;33.60;51.10
8269;DHT22;4174;48.304;16.364;2023-07-28T12:35:33;32.70;51.80
8269;DHT22;4174;48.304;16.364;2023-07-28T12:41:45;31.70;53.50
8269;DHT22;4174;48.304;16.364;2023-07-28T12:47:54;30.80;55.00
8269;DHT22;4174;48.304;16.364;2023-07-28T12:53:58;30.30;56.00
8269;DHT22;4174;48.304;16.364;2023-07-28T13:00:06;29.70;60.00
8269;DHT22;4174;48.304;16.364;2023-07-28T13:06:16;29.60;59.90
8269;DHT22;4174;48.304;16.364;2023-07-28T13:12:23;29.40;62.30
8269;DHT22;4174;48.304;16.364;2023-07-28T13:18:31;29.10;64.10
8269;DHT22;4174;48.304;16.364;2023-07-28T13:24:36;29.10;64.10
8269;DHT22;4174;48.304;16.364;2023-07-28T13:30:47;28.80;63.50
8269;DHT22;4174;48.304;16.364;2023-07-28T13:36:52;28.70;62.20
8269;DHT22;4174;48.304;16.364;2023-07-28T13:49:21;29.30;66.90
8269;DHT22;4174;48.304;16.364;2023-07-28T13:55:30;29.90;66.50
8269;DHT22;4174;48.304;16.364;2023-07-28T14:01:35;29.90;66.30
8269;DHT22;4174;48.304;16.364;2023-07-28T14:07:40;30.30;66.50
8269;DHT22;4174;48.304;16.364;2023-07-28T14:13:47;30.10;67.00
8269;DHT22;4174;48.304;16.364;2023-07-28T14:19:53;29.70;69.80
8269;DHT22;4174;48.304;16.364;2023-07-28T14:26:00;29.70;69.70
8269;DHT22;4174;48.304;16.364;2023-07-28T14:32:06;29.60;68.50
8269;DHT22;4174;48.304;16.364;2023-07-28T14:38:12;29.60;68.90
8269;DHT22;4174;48.304;16.364;2023-07-28T14:44:26;29.60;70.90
8269;DHT22;4174;48.304;16.364;2023-07-28T14:50:34;29.40;72.70
8269;DHT22;4174;48.304;16.364;2023-07-28T14:56:40;29.40;73.00
8269;DHT22;4174;48.304;16.364;2023-07-28T15:02:48;29.30;75.30
8269;DHT22;4174;48.304;16.364;2023-07-28T15:09:00;29.60;75.40
8269;DHT22;4174;48.304;16.364;2023-07-28T15:15:13;29.50;76.20
8269;DHT22;4174;48.304;16.364;2023-07-28T15:21:18;29.80;73.50
8269;DHT22;4174;48.304;16.364;2023-07-28T15:27:25;29.90;71.50
8269;DHT22;4174;48.304;16.364;2023-07-28T15:33:32;29.70;72.20
8269;DHT22;4174;48.304;16.364;2023-07-28T15:46:01;29.50;73.40
8269;DHT22;4174;48.304;16.364;2023-07-28T15:52:08;29.20;73.40
8269;DHT22;4174;48.304;16.364;2023-07-28T15:58:13;29.30;77.40
8269;DHT22;4174;48.304;16.364;2023-07-28T16:04:29;29.30;77.30
8269;DHT22;4174;48.304;16.364;2023-07-28T16:10:37;28.80;71.60
8269;DHT22;4174;48.304;16.364;2023-07-28T16:16:44;28.50;71.00
8269;DHT22;4174;48.304;16.364;2023-07-28T16:22:49;28.10;70.70
8269;DHT22;4174;48.304;16.364;2023-07-28T16:28:57;28.00;69.50
8269;DHT22;4174;48.304;16.364;2023-07-28T16:35:04;28.00;69.50
8269;DHT22;4174;48.304;16.364;2023-07-28T16:41:12;28.00;70.40
8269;DHT22;4174;48.304;16.364;2023-07-28T16:54:25;28.10;71.40
8269;DHT22;4174;48.304;16.364;2023-07-28T17:00:30;28.10;71.10
8269;DHT22;4174;48.304;16.364;2023-07-28T17:06:36;28.00;72.60
8269;DHT22;4174;48.304;16.364;2023-07-28T17:12:41;28.00;73.90
8269;DHT22;4174;48.304;16.364;2023-07-28T17:18:47;28.00;76.80
8269;DHT22;4174;48.304;16.364;2023-07-28T17:24:54;28.00;79.10
8269;DHT22;4174;48.304;16.364;2023-07-28T17:30:58;27.90;79.00
8269;DHT22;4174;48.304;16.364;2023-07-28T17:37:04;27.90;82.70
8269;DHT22;4174;48.304;16.364;2023-07-28T17:43:08;27.90;83.20
8269;DHT22;4174;48.304;16.364;2023-07-28T17:49:13;27.90;84.00
8269;DHT22;4174;48.304;16.364;2023-07-28T17:55:19;27.80;84.40
8269;DHT22;4174;48.304;16.364;2023-07-28T18:01:25;27.60;85.60
8269;DHT22;4174;48.304;16.364;2023-07-28T18:07:31;27.60;85.60
8269;DHT22;4174;48.304;16.364;2023-07-28T18:13:40;27.30;89.30
8269;DHT22;4174;48.304;16.364;2023-07-28T18:19:46;27.30;90.40
8269;DHT22;4174;48.304;16.364;2023-07-28T18:25:55;27.20;90.40
8269;DHT22;4174;48.304;16.364;2023-07-28T18:32:00;27.00;90.70
8269;DHT22;4174;48.304;16.364;2023-07-28T18:38:13;26.90;90.70
8269;DHT22;4174;48.304;16.364;2023-07-28T18:44:19;26.80;92.50
8269;DHT22;4174;48.304;16.364;2023-07-28T18:50:26;26.70;92.60
8269;DHT22;4174;48.304;16.364;2023-07-28T18:56:31;26.60;94.50
8269;DHT22;4174;48.304;16.364;2023-07-28T19:02:36;26.50;96.10
8269;DHT22;4174;48.304;16.364;2023-07-28T19:08:42;26.20;95.10
8269;DHT22;4174;48.304;16.364;2023-07-28T19:14:48;26.00;97.20
8269;DHT22;4174;48.304;16.364;2023-07-28T19:20:54;25.90;97.10
8269;DHT22;4174;48.304;16.364;2023-07-28T19:26:59;25.70;97.90
8269;DHT22;4174;48.304;16.364;2023-07-28T19:33:05;25.40;99.70
8269;DHT22;4174;48.304;16.364;2023-07-28T19:39:09;25.30;99.70
8269;DHT22;4174;48.304;16.364;2023-07-28T19:45:16;25.20;99.90
8269;DHT22;4174;48.304;16.364;2023-07-28T19:51:21;25.10;99.90
8269;DHT22;4174;48.304;16.364;2023-07-28T19:57:27;25.10;99.90
8269;DHT22;4174;48.304;16.364;2023-07-28T20:03:33;24.90;99.90
8269;DHT22;4174;48.304;16.364;2023-07-28T20:09:37;24.80;99.90
8269;DHT22;4174;48.304;16.364;2023-07-28T20:15:43;24.70;99.90
8269;DHT22;4174;48.304;16.364;2023-07-28T20:21:48;24.70;99.90
8269;DHT22;4174;48.304;16.364;2023-07-28T20:27:52;24.50;99.90
8269;DHT22;4174;48.304;16.364;2023-07-28T20:34:01;24.40;99.90
8269;DHT22;4174;48.304;16.364;2023-07-28T20:40:08;24.30;99.90
8269;DHT22;4174;48.304;16.364;2023-07-28T20:46:12;24.30;99.90
8269;DHT22;4174;48.304;16.364;2023-07-28T20:52:18;24.30;99.90
8269;DHT22;4174;48.304;16.364;2023-07-28T20:58:23;24.30;99.90
8269;DHT22;4174;48.304;16.364;2023-07-28T21:04:29;24.30;99.90
8269;DHT22;4174;48.304;16.364;2023-07-28T21:10:33;24.40;99.90
8269;DHT22;4174;48.304;16.364;2023-07-28T21:16:38;24.30;99.90
8269;DHT22;4174;48.304;16.364;2023-07-28T21:22:42;24.20;99.90
8269;DHT22;4174;48.304;16.364;2023-07-28T21:28:49;23.90;99.90
8269;DHT22;4174;48.304;16.364;2023-07-28T21:34:53;23.80;99.90
8269;DHT22;4174;48.304;16.364;2023-07-28T21:40:58;23.70;99.90
8269;DHT22;4174;48.304;16.364;2023-07-28T21:47:03;23.70;99.90
8269;DHT22;4174;48.304;16.364;2023-07-28T21:53:13;23.60;99.90
8269;DHT22;4174;48.304;16.364;2023-07-28T21:59:16;23.50;99.90
8269;DHT22;4174;48.304;16.364;2023-07-28T22:05:21;23.40;99.90
8269;DHT22;4174;48.304;16.364;2023-07-28T22:11:26;23.20;99.90
8269;DHT22;4174;48.304;16.364;2023-07-28T22:17:36;23.30;99.90
8269;DHT22;4174;48.304;16.364;2023-07-28T22:23:42;23.00;99.90
8269;DHT22;4174;48.304;16.364;2023-07-28T22:29:46;22.90;99.90
8269;DHT22;4174;48.304;16.364;2023-07-28T22:35:51;23.00;99.90
8269;DHT22;4174;48.304;16.364;2023-07-28T22:41:56;22.90;99.90
8269;DHT22;4174;48.304;16.364;2023-07-28T22:48:01;23.00;99.90
8269;DHT22;4174;48.304;16.364;2023-07-28T22:54:09;23.20;99.90
8269;DHT22;4174;48.304;16.364;2023-07-28T23:00:15;23.40;99.90
8269;DHT22;4174;48.304;16.364;2023-07-28T23:06:19;23.40;99.90
8269;DHT22;4174;48.304;16.364;2023-07-28T23:12:25;23.30;99.90
8269;DHT22;4174;48.304;16.364;2023-07-28T23:18:31;23.30;99.90
8269;DHT22;4174;48.304;16.364;2023-07-28T23:24:36;23.40;99.90
8269;DHT22;4174;48.304;16.364;2023-07-28T23:30:42;23.40;99.90
8269;DHT22;4174;48.304;16.364;2023-07-28T23:36:46;23.40;99.90
8269;DHT22;4174;48.304;16.364;2023-07-28T23:42:51;23.40;99.90
8269;DHT22;4174;48.304;16.364;2023-07-28T23:48:56;23.40;99.90
8269;DHT22;4174;48.304;16.364;2023-07-28T23:55:00;23.40;99.90
